Time;durP1;ratioP1;P1;durP2;ratioP2;P2;SDS_P1;SDS_P2;PMS_P1;PMS_P2;Temp;Humidity;BMP_temperature;BMP_pressure;BME280_temperature;BME280_humidity;BME280_pressure;Samples;Min_cycle;Max_cycle;Signal;HPM_P1;HPM_P2
2023/04/24 00:02:20;;;;;;;;;4.00;4.00;;;;;-147.47;100.00;64613.53;5073037;28;46180;-69
2023/04/24 00:04:46;;;;;;;;;3.67;3.67;;;;;-147.47;100.00;64613.53;5076167;27;45361;-67
2023/04/24 00:07:12;;;;;;;;;3.00;3.00;;;;;-147.47;100.00;64613.53;5062314;28;45756;-67
2023/04/24 00:09:38;;;;;;;;;3.67;2.67;;;;;-147.47;100.00;64613.53;5067983;28;45524;-68
2023/04/24 00:12:04;;;;;;;;;3.00;3.00;;;;;-147.47;100.00;64613.53;5070954;28;46898;-69
2023/04/24 00:14:31;;;;;;;;;4.67;3.67;;;;;-147.47;100.00;64613.53;5069154;27;45388;-67
2023/04/24 00:16:56;;;;;;;;;6.33;5.00;;;;;-147.47;100.00;64613.53;5072798;28;45371;-69
2023/04/24 00:19:21;;;;;;;;;4.67;4.67;;;;;-147.47;100.00;64613.53;5071394;28;45364;-69
2023/04/24 00:21:49;;;;;;;;;5.00;3.00;;;;;-147.47;100.00;64613.53;5072275;28;45344;-68
2023/04/24 00:24:16;;;;;;;;;3.00;3.00;;;;;-147.47;100.00;64613.53;5069323;28;45594;-66
2023/04/24 00:26:41;;;;;;;;;4.00;4.00;;;;;-147.47;100.00;64613.53;5071676;28;45412;-69
2023/04/24 00:29:06;;;;;;;;;2.33;2.33;;;;;-147.47;100.00;64613.53;5066775;28;45752;-67
2023/04/24 00:31:34;;;;;;;;;6.00;3.00;;;;;-147.47;100.00;64613.53;5039049;28;48687;-68
2023/04/24 00:34:00;;;;;;;;;3.00;3.00;;;;;-147.47;100.00;64613.53;5057524;28;45495;-67
2023/04/24 00:36:26;;;;;;;;;7.00;4.33;;;;;-147.47;100.00;64613.53;5062409;28;46532;-67
2023/04/24 00:38:52;;;;;;;;;4.00;4.00;;;;;-147.47;100.00;64613.53;5069862;28;45500;-68
2023/04/24 00:41:18;;;;;;;;;4.00;4.00;;;;;-147.47;100.00;64613.53;5070837;28;46251;-67
2023/04/24 00:43:44;;;;;;;;;5.00;4.33;;;;;-147.47;100.00;64613.53;5071777;28;45752;-66
2023/04/24 00:46:10;;;;;;;;;3.67;2.67;;;;;-147.47;100.00;64613.53;5054721;28;45604;-66
2023/04/24 00:48:38;;;;;;;;;3.00;3.00;;;;;-147.47;100.00;64613.53;5055623;27;46216;-67
2023/04/24 00:51:04;;;;;;;;;4.67;4.67;;;;;-147.47;100.00;64613.53;5063778;28;46658;-68
2023/04/24 00:53:29;;;;;;;;;5.33;4.33;;;;;-147.47;100.00;64613.53;5071928;28;45847;-67
2023/04/24 00:55:56;;;;;;;;;4.33;4.00;;;;;-147.47;100.00;64613.53;5075525;27;45687;-67
2023/04/24 00:58:21;;;;;;;;;5.00;4.00;;;;;-147.47;100.00;64613.53;5071272;27;45458;-68
2023/04/24 01:00:49;;;;;;;;;4.67;3.33;;;;;-147.47;100.00;64613.53;5087260;27;45333;-71
2023/04/24 01:03:15;;;;;;;;;3.00;3.00;;;;;-147.47;100.00;64613.53;5079667;27;45765;-67
2023/04/24 01:05:41;;;;;;;;;4.00;4.00;;;;;-147.47;100.00;64613.53;5083958;27;45377;-68
2023/04/24 01:08:07;;;;;;;;;6.00;4.67;;;;;-147.47;100.00;64613.53;5059412;28;45887;-68
2023/04/24 01:10:34;;;;;;;;;4.00;4.00;;;;;-147.47;100.00;64613.53;5075599;28;45485;-68
2023/04/24 01:13:00;;;;;;;;;5.00;5.00;;;;;-147.47;100.00;64613.53;5088084;27;45640;-66
2023/04/24 01:15:26;;;;;;;;;5.33;4.00;;;;;-147.47;100.00;64613.53;5075848;28;45407;-66
2023/04/24 01:17:51;;;;;;;;;4.67;3.67;;;;;-147.47;100.00;64613.53;5075075;28;45326;-67
2023/04/24 01:20:17;;;;;;;;;5.67;5.00;;;;;-147.47;100.00;64613.53;5072324;28;45708;-70
2023/04/24 01:22:42;;;;;;;;;4.33;4.33;;;;;-147.47;100.00;64613.53;5062601;28;45498;-68
2023/04/24 01:25:08;;;;;;;;;4.00;4.00;;;;;-147.47;100.00;64613.53;5073007;28;45779;-66
2023/04/24 01:27:34;;;;;;;;;4.00;2.67;;;;;-147.47;100.00;64613.53;5057319;28;46150;-69
2023/04/24 01:29:59;;;;;;;;;4.00;4.00;;;;;-147.47;100.00;64613.53;5085690;27;45868;-66
2023/04/24 01:32:25;;;;;;;;;5.67;4.00;;;;;-147.47;100.00;64613.53;5074953;27;45412;-69
2023/04/24 01:34:51;;;;;;;;;3.00;3.00;;;;;-147.47;100.00;64613.53;5056532;28;45354;-68
2023/04/24 01:37:16;;;;;;;;;4.67;4.67;;;;;-147.47;100.00;64613.53;5074026;28;45853;-66
2023/04/24 01:39:43;;;;;;;;;3.67;3.00;;;;;-147.47;100.00;64613.53;5073282;28;45460;-68
2023/04/24 01:42:09;;;;;;;;;4.00;4.00;;;;;-147.47;100.00;64613.53;5075175;28;45365;-68
2023/04/24 01:44:34;;;;;;;;;4.00;4.00;;;;;-147.47;100.00;64613.53;5075008;28;45920;-68
2023/04/24 01:47:01;;;;;;;;;4.67;4.00;;;;;-147.47;100.00;64613.53;5056890;28;46747;-67
2023/04/24 01:49:26;;;;;;;;;4.00;4.00;;;;;-147.47;100.00;64613.53;5072436;28;45602;-68
2023/04/24 01:51:52;;;;;;;;;3.00;3.00;;;;;-147.47;100.00;64613.53;5075387;28;45686;-67
2023/04/24 01:54:17;;;;;;;;;4.33;4.33;;;;;-147.47;100.00;64613.53;5075408;28;45743;-66
2023/04/24 01:56:43;;;;;;;;;7.00;6.00;;;;;-147.47;100.00;64613.53;5052449;28;46919;-66
2023/04/24 01:59:10;;;;;;;;;3.33;3.33;;;;;-147.47;100.00;64613.53;5064643;28;45620;-67
2023/04/24 02:01:37;;;;;;;;;5.67;4.00;;;;;-147.47;100.00;64613.53;5052229;28;46426;-68
2023/04/24 02:04:04;;;;;;;;;7.00;2.00;;;;;-147.47;100.00;64613.53;5060836;27;45500;-66
2023/04/24 02:06:31;;;;;;;;;4.00;2.00;;;;;-147.47;100.00;64613.53;5053999;28;46286;-69
2023/04/24 02:08:57;;;;;;;;;5.00;4.00;;;;;-147.47;100.00;64613.53;5060617;27;46967;-68
2023/04/24 02:11:22;;;;;;;;;6.33;5.00;;;;;-147.47;100.00;64613.53;5067284;28;45694;-69
2023/04/24 02:13:48;;;;;;;;;4.33;4.00;;;;;-147.47;100.00;64613.53;5074321;28;45742;-68
2023/04/24 02:16:13;;;;;;;;;3.67;2.67;;;;;-147.47;100.00;64613.53;5074153;28;45596;-67
2023/04/24 02:18:39;;;;;;;;;4.00;3.00;;;;;-147.47;100.00;64613.53;5072769;28;45713;-69
2023/04/24 02:21:05;;;;;;;;;2.33;2.33;;;;;-147.47;100.00;64613.53;5049933;28;45540;-66
2023/04/24 02:23:30;;;;;;;;;4.67;3.00;;;;;-147.47;100.00;64613.53;5073315;28;45540;-67
2023/04/24 02:25:56;;;;;;;;;5.00;4.67;;;;;-147.47;100.00;64613.53;5071381;28;46654;-69
2023/04/24 02:28:21;;;;;;;;;4.00;4.00;;;;;-147.47;100.00;64613.53;5070114;27;45598;-67
2023/04/24 02:30:47;;;;;;;;;6.00;3.67;;;;;-147.47;100.00;64613.53;5072152;28;45774;-68
2023/04/24 02:33:12;;;;;;;;;6.00;3.33;;;;;-147.47;100.00;64613.53;5056138;28;45892;-68
2023/04/24 02:35:37;;;;;;;;;4.00;4.00;;;;;-147.47;100.00;64613.53;5067191;28;46658;-67
2023/04/24 02:38:03;;;;;;;;;2.00;2.00;;;;;-147.47;100.00;64613.53;5044315;28;45853;-67
2023/04/24 02:40:29;;;;;;;;;4.00;3.00;;;;;-147.47;100.00;64613.53;5072687;28;45673;-66
2023/04/24 02:42:55;;;;;;;;;3.00;2.00;;;;;-147.47;100.00;64613.53;5072477;28;45483;-68
2023/04/24 02:45:20;;;;;;;;;4.00;3.00;;;;;-147.47;100.00;64613.53;5074149;28;45694;-68
2023/04/24 02:47:45;;;;;;;;;3.00;3.00;;;;;-147.47;100.00;64613.53;5055827;28;48194;-67
2023/04/24 02:50:11;;;;;;;;;2.33;2.33;;;;;-147.47;100.00;64613.53;5072590;28;45377;-67
2023/04/24 02:52:36;;;;;;;;;3.67;3.67;;;;;-147.47;100.00;64613.53;5073547;28;45688;-67
2023/04/24 02:55:02;;;;;;;;;3.00;3.00;;;;;-147.47;100.00;64613.53;5073463;28;45863;-67
2023/04/24 02:57:27;;;;;;;;;4.00;2.33;;;;;-147.47;100.00;64613.53;5073118;28;45964;-67
2023/04/24 02:59:53;;;;;;;;;5.33;3.00;;;;;-147.47;100.00;64613.53;5072787;28;45365;-68
2023/04/24 03:02:18;;;;;;;;;4.67;4.00;;;;;-147.47;100.00;64613.53;5065254;27;45638;-67
2023/04/24 03:04:44;;;;;;;;;5.00;3.67;;;;;-147.47;100.00;64613.53;5080125;27;45648;-67
2023/04/24 03:07:09;;;;;;;;;6.00;4.67;;;;;-147.47;100.00;64613.53;5073288;28;45463;-66
2023/04/24 03:09:35;;;;;;;;;4.33;4.00;;;;;-147.47;100.00;64613.53;5055215;28;45704;-67
2023/04/24 03:12:00;;;;;;;;;4.33;3.00;;;;;-147.47;100.00;64613.53;5073387;28;45773;-70
2023/04/24 03:14:25;;;;;;;;;4.00;2.67;;;;;-147.47;100.00;64613.53;5073103;28;45875;-67
2023/04/24 03:16:51;;;;;;;;;4.00;2.00;;;;;-147.47;100.00;64613.53;5072077;28;48328;-68
2023/04/24 03:19:16;;;;;;;;;5.00;3.00;;;;;-147.47;100.00;64613.53;5061938;27;46062;-67
2023/04/24 03:21:42;;;;;;;;;6.00;4.00;;;;;-147.47;100.00;64613.53;5073261;28;45774;-68
2023/04/24 03:24:08;;;;;;;;;5.33;2.33;;;;;-147.47;100.00;64613.53;5073584;28;45400;-67
2023/04/24 03:26:34;;;;;;;;;3.00;2.00;;;;;-147.47;100.00;64613.53;5072454;28;46127;-67
2023/04/24 03:29:00;;;;;;;;;4.33;3.00;;;;;-147.47;100.00;64613.53;5048631;28;45484;-66
2023/04/24 03:31:25;;;;;;;;;2.00;2.00;;;;;-147.47;100.00;64613.53;5059266;28;45463;-66
2023/04/24 03:33:51;;;;;;;;;4.00;4.00;;;;;-147.47;100.00;64613.53;5071232;28;45729;-67
2023/04/24 03:36:17;;;;;;;;;3.00;3.00;;;;;-147.47;100.00;64613.53;5055425;28;45658;-67
2023/04/24 03:38:42;;;;;;;;;3.00;3.00;;;;;-147.47;100.00;64613.53;5069991;28;45705;-67
2023/04/24 03:41:08;;;;;;;;;5.67;4.00;;;;;-147.47;100.00;64613.53;5073175;28;45796;-68
2023/04/24 03:43:34;;;;;;;;;3.33;3.33;;;;;-147.47;100.00;64613.53;5059949;28;45499;-68
2023/04/24 03:46:00;;;;;;;;;3.67;2.33;;;;;-147.47;100.00;64613.53;5055248;28;45814;-69
2023/04/24 03:48:25;;;;;;;;;3.33;2.00;;;;;-147.47;100.00;64613.53;5054653;28;45775;-67
2023/04/24 03:50:51;;;;;;;;;5.00;4.00;;;;;-147.47;100.00;64613.53;5054944;28;45761;-68
2023/04/24 03:53:16;;;;;;;;;3.67;3.67;;;;;-147.47;100.00;64613.53;5037757;28;45586;-68
2023/04/24 03:55:42;;;;;;;;;5.00;3.67;;;;;-147.47;100.00;64613.53;5055250;28;47281;-68
2023/04/24 03:58:07;;;;;;;;;5.00;5.00;;;;;-147.47;100.00;64613.53;5070289;28;45678;-66
2023/04/24 04:00:34;;;;;;;;;3.00;1.00;;;;;-147.47;100.00;64613.53;5064836;28;45345;-67
2023/04/24 04:02:59;;;;;;;;;2.00;2.00;;;;;-147.47;100.00;64613.53;5075973;27;45452;-67
2023/04/24 04:05:25;;;;;;;;;4.33;3.00;;;;;-147.47;100.00;64613.53;5081016;27;45863;-67
2023/04/24 04:07:50;;;;;;;;;3.67;3.67;;;;;-147.47;100.00;64613.53;5071993;27;45384;-66
2023/04/24 04:10:17;;;;;;;;;1.67;1.67;;;;;-147.47;100.00;64613.53;5053255;28;45614;-67
2023/04/24 04:12:42;;;;;;;;;5.67;3.00;;;;;-147.47;100.00;64613.53;5042467;28;46677;-66
2023/04/24 04:15:08;;;;;;;;;3.00;3.00;;;;;-147.47;100.00;64613.53;5036964;28;46360;-67
2023/04/24 04:17:34;;;;;;;;;2.00;1.33;;;;;-147.47;100.00;64613.53;5066277;28;45684;-68
2023/04/24 04:19:59;;;;;;;;;6.33;4.00;;;;;-147.47;100.00;64613.53;5066132;28;45868;-68
2023/04/24 04:22:25;;;;;;;;;4.00;3.00;;;;;-147.47;100.00;64613.53;5067819;28;45829;-69
2023/04/24 04:24:50;;;;;;;;;6.00;4.00;;;;;-147.47;100.00;64613.53;5071602;28;45485;-68
2023/04/24 04:27:16;;;;;;;;;5.00;4.00;;;;;-147.47;100.00;64613.53;5071291;28;45795;-69
2023/04/24 04:29:42;;;;;;;;;3.33;3.33;;;;;-147.47;100.00;64613.53;5071855;28;45538;-69
2023/04/24 04:32:07;;;;;;;;;6.33;3.67;;;;;-147.47;100.00;64613.53;5052950;28;46261;-67
2023/04/24 04:34:33;;;;;;;;;5.00;4.00;;;;;-147.47;100.00;64613.53;5065449;28;45484;-69
2023/04/24 04:37:01;;;;;;;;;3.00;3.00;;;;;-147.47;100.00;64613.53;5068624;28;45454;-68
2023/04/24 04:39:28;;;;;;;;;4.33;3.33;;;;;-147.47;100.00;64613.53;5071480;28;45641;-67
2023/04/24 04:41:53;;;;;;;;;4.00;4.00;;;;;-147.47;100.00;64613.53;5051745;28;45553;-66
2023/04/24 04:44:19;;;;;;;;;4.00;4.00;;;;;-147.47;100.00;64613.53;5068743;28;47847;-66
2023/04/24 04:46:44;;;;;;;;;7.33;5.00;;;;;-147.47;100.00;64613.53;5049404;28;45387;-68
2023/04/24 04:49:10;;;;;;;;;3.00;3.00;;;;;-147.47;100.00;64613.53;5062288;28;45467;-71
2023/04/24 04:51:36;;;;;;;;;5.00;4.00;;;;;-147.47;100.00;64613.53;5053971;28;46521;-68
2023/04/24 04:54:02;;;;;;;;;5.67;3.00;;;;;-147.47;100.00;64613.53;5063099;28;45709;-68
2023/04/24 04:56:27;;;;;;;;;7.33;6.00;;;;;-147.47;100.00;64613.53;5072392;28;45445;-69
2023/04/24 04:58:53;;;;;;;;;5.33;4.00;;;;;-147.47;100.00;64613.53;5071692;27;45732;-68
2023/04/24 05:01:18;;;;;;;;;5.67;4.00;;;;;-147.47;100.00;64613.53;5070187;28;45413;-69
2023/04/24 05:03:44;;;;;;;;;2.00;2.00;;;;;-147.47;100.00;64613.53;5064459;28;46140;-67
2023/04/24 05:06:09;;;;;;;;;7.00;4.00;;;;;-147.47;100.00;64613.53;5074594;27;45356;-69
2023/04/24 05:08:35;;;;;;;;;5.00;4.00;;;;;-147.47;100.00;64613.53;5077685;27;45788;-67
2023/04/24 05:11:01;;;;;;;;;7.00;5.00;;;;;-147.47;100.00;64613.53;5073952;27;45405;-70
2023/04/24 05:13:26;;;;;;;;;3.67;3.33;;;;;-147.47;100.00;64613.53;5071561;28;45668;-66
2023/04/24 05:15:51;;;;;;;;;4.33;4.33;;;;;-147.47;100.00;64613.53;5068972;28;46346;-67
2023/04/24 05:18:17;;;;;;;;;3.00;3.00;;;;;-147.47;100.00;64613.53;5068717;28;45862;-68
2023/04/24 05:20:43;;;;;;;;;5.67;4.00;;;;;-147.47;100.00;64613.53;5072171;28;45816;-68
2023/04/24 05:23:09;;;;;;;;;7.67;4.67;;;;;-147.47;100.00;64613.53;5066114;27;45654;-67
2023/04/24 05:25:35;;;;;;;;;6.67;4.00;;;;;-147.47;100.00;64613.53;5064404;28;45476;-68
2023/04/24 05:28:01;;;;;;;;;4.00;4.00;;;;;-147.47;100.00;64613.53;5066021;28;45497;-70
2023/04/24 05:30:27;;;;;;;;;6.33;4.00;;;;;-147.47;100.00;64613.53;5068728;28;45713;-67
2023/04/24 05:32:53;;;;;;;;;6.00;5.00;;;;;-147.47;100.00;64613.53;5060295;27;47185;-67
2023/04/24 05:35:18;;;;;;;;;4.00;3.00;;;;;-147.47;100.00;64613.53;5069207;28;45849;-67
2023/04/24 05:37:44;;;;;;;;;7.00;5.67;;;;;-147.47;100.00;64613.53;5066484;28;45842;-68
2023/04/24 05:40:10;;;;;;;;;7.33;7.00;;;;;-147.47;100.00;64613.53;5069932;28;45987;-72
2023/04/24 05:42:36;;;;;;;;;5.00;5.00;;;;;-147.47;100.00;64613.53;5064401;28;45394;-69
2023/04/24 05:45:02;;;;;;;;;8.00;6.00;;;;;-147.47;100.00;64613.53;5064747;28;45704;-69
2023/04/24 05:47:27;;;;;;;;;6.00;3.67;;;;;-147.47;100.00;64613.53;5070485;28;45455;-68
2023/04/24 05:49:53;;;;;;;;;5.67;4.33;;;;;-147.47;100.00;64613.53;5072484;27;45466;-70
2023/04/24 05:52:18;;;;;;;;;6.00;5.00;;;;;-147.47;100.00;64613.53;5064069;28;45571;-73
2023/04/24 05:54:44;;;;;;;;;6.00;6.00;;;;;-147.47;100.00;64613.53;5051919;28;45702;-69
2023/04/24 05:57:09;;;;;;;;;9.67;7.67;;;;;-147.47;100.00;64613.53;5072848;28;45827;-70
2023/04/24 05:59:38;;;;;;;;;10.00;6.00;;;;;-147.47;100.00;64613.53;5072832;27;45828;-70
2023/04/24 06:02:03;;;;;;;;;6.33;6.33;;;;;-147.47;100.00;64613.53;5070394;28;45567;-69
2023/04/24 06:04:28;;;;;;;;;5.33;5.33;;;;;-147.47;100.00;64613.53;5055030;28;45774;-70
2023/04/24 06:06:55;;;;;;;;;8.33;7.00;;;;;-147.47;100.00;64613.53;5075233;27;45469;-69
2023/04/24 06:09:25;;;;;;;;;7.00;7.00;;;;;-147.47;100.00;64613.53;5072450;27;45788;-69
2023/04/24 06:11:53;;;;;;;;;7.33;7.33;;;;;-147.47;100.00;64613.53;5070862;27;45582;-72
2023/04/24 06:14:18;;;;;;;;;6.00;6.00;;;;;-147.47;100.00;64613.53;5066966;28;45702;-70
2023/04/24 06:16:44;;;;;;;;;6.67;5.67;;;;;-147.47;100.00;64613.53;5060712;27;45883;-72
2023/04/24 06:19:09;;;;;;;;;9.33;6.67;;;;;-147.47;100.00;64613.53;5071278;28;45539;-66
2023/04/24 06:21:35;;;;;;;;;8.33;8.33;;;;;-147.47;100.00;64613.53;5067921;27;45821;-70
2023/04/24 06:24:00;;;;;;;;;6.00;6.00;;;;;-147.47;100.00;64613.53;5052467;28;45519;-70
2023/04/24 06:26:26;;;;;;;;;13.33;7.67;;;;;-147.47;100.00;64613.53;5067824;27;45694;-72
2023/04/24 06:28:53;;;;;;;;;9.00;7.00;;;;;-147.47;100.00;64613.53;5072003;28;45878;-71
2023/04/24 06:31:19;;;;;;;;;14.33;10.67;;;;;-147.47;100.00;64613.53;5065151;27;45453;-70
2023/04/24 06:33:45;;;;;;;;;7.33;6.67;;;;;-147.47;100.00;64613.53;5067115;28;45662;-68
2023/04/24 06:36:11;;;;;;;;;8.67;7.67;;;;;-147.47;100.00;64613.53;5069901;28;45623;-69
2023/04/24 06:38:37;;;;;;;;;8.67;8.67;;;;;-147.47;100.00;64613.53;5067882;27;45974;-70
2023/04/24 06:41:04;;;;;;;;;8.00;8.00;;;;;-147.47;100.00;64613.53;5060960;28;45594;-70
2023/04/24 06:43:30;;;;;;;;;11.00;9.33;;;;;-147.47;100.00;64613.53;5062074;27;45526;-70
2023/04/24 06:45:55;;;;;;;;;10.67;8.33;;;;;-147.47;100.00;64613.53;5065247;28;45873;-68
2023/04/24 06:48:21;;;;;;;;;12.67;8.00;;;;;-147.47;100.00;64613.53;5066587;28;45552;-69
2023/04/24 06:50:46;;;;;;;;;12.67;10.67;;;;;-147.47;100.00;64613.53;5068164;28;47011;-71
2023/04/24 06:53:14;;;;;;;;;9.33;7.33;;;;;-147.47;100.00;64613.53;5072936;28;45402;-72
2023/04/24 06:55:40;;;;;;;;;11.67;7.33;;;;;-147.47;100.00;64613.53;5072175;27;45657;-68
2023/04/24 06:58:06;;;;;;;;;12.00;8.33;;;;;-147.47;100.00;64613.53;5064871;28;45607;-71
2023/04/24 07:00:31;;;;;;;;;7.33;6.33;;;;;-147.47;100.00;64613.53;5071933;28;45517;-71
2023/04/24 07:02:57;;;;;;;;;8.00;8.00;;;;;-147.47;100.00;64613.53;5071354;28;45467;-70
2023/04/24 07:05:23;;;;;;;;;8.33;7.00;;;;;-147.47;100.00;64613.53;5072320;28;45470;-71
2023/04/24 07:07:49;;;;;;;;;9.67;8.67;;;;;-147.47;100.00;64613.53;5074913;27;45499;-70
2023/04/24 07:10:15;;;;;;;;;10.33;7.67;;;;;-147.47;100.00;64613.53;5072176;28;46326;-70
2023/04/24 07:12:40;;;;;;;;;8.67;7.67;;;;;-147.47;100.00;64613.53;5052204;28;45550;-68
2023/04/24 07:15:07;;;;;;;;;10.00;8.00;;;;;-147.47;100.00;64613.53;5072335;28;45546;-70
2023/04/24 07:17:33;;;;;;;;;7.33;7.33;;;;;-147.47;100.00;64613.53;5072251;28;46290;-70
2023/04/24 07:19:59;;;;;;;;;6.67;6.67;;;;;-147.47;100.00;64613.53;5071208;28;46030;-70
2023/04/24 07:22:24;;;;;;;;;10.67;10.00;;;;;-147.47;100.00;64613.53;5066334;28;45391;-69
2023/04/24 07:24:50;;;;;;;;;10.33;10.00;;;;;-147.47;100.00;64613.53;5054571;28;45600;-69
2023/04/24 07:27:15;;;;;;;;;13.33;11.33;;;;;-147.47;100.00;64613.53;5072631;28;45490;-70
2023/04/24 07:29:41;;;;;;;;;10.00;8.33;;;;;-147.47;100.00;64613.53;5073090;27;46099;-69
2023/04/24 07:32:07;;;;;;;;;9.67;8.00;;;;;-147.47;100.00;64613.53;5054229;28;45729;-68
2023/04/24 07:34:33;;;;;;;;;17.33;14.33;;;;;-147.47;100.00;64613.53;5071837;28;45705;-69
2023/04/24 07:36:58;;;;;;;;;10.00;10.00;;;;;-147.47;100.00;64613.53;5070986;28;45480;-69
2023/04/24 07:39:24;;;;;;;;;11.00;9.67;;;;;-147.47;100.00;64613.53;5072622;28;45899;-70
2023/04/24 07:41:49;;;;;;;;;15.67;12.67;;;;;-147.47;100.00;64613.53;5052921;28;45417;-71
2023/04/24 07:44:15;;;;;;;;;11.67;11.00;;;;;-147.47;100.00;64613.53;5055297;28;46135;-70
2023/04/24 07:46:40;;;;;;;;;10.33;10.33;;;;;-147.47;100.00;64613.53;5073047;28;45926;-69
2023/04/24 07:49:06;;;;;;;;;11.33;8.33;;;;;-147.47;100.00;64613.53;5065608;28;48439;-70
2023/04/24 07:51:33;;;;;;;;;12.67;12.33;;;;;-147.47;100.00;64613.53;5066793;28;45677;-69
2023/04/24 07:53:58;;;;;;;;;10.00;8.00;;;;;-147.47;100.00;64613.53;5072617;28;45712;-69
2023/04/24 07:56:25;;;;;;;;;7.67;7.67;;;;;-147.47;100.00;64613.53;5073220;28;45602;-69
2023/04/24 07:58:50;;;;;;;;;7.33;7.00;;;;;-147.47;100.00;64613.53;5071968;28;46207;-69
2023/04/24 08:01:15;;;;;;;;;9.00;6.75;;;;;-147.47;100.00;64613.53;5073027;28;45342;-69
2023/04/24 08:03:41;;;;;;;;;9.00;8.33;;;;;-147.47;100.00;64613.53;5073307;28;46343;-69
2023/04/24 08:06:06;;;;;;;;;8.67;8.67;;;;;-147.47;100.00;64613.53;5058309;27;45744;-70
2023/04/24 08:08:32;;;;;;;;;11.25;9.25;;;;;-147.47;100.00;64613.53;5047981;28;48384;-69
2023/04/24 08:10:57;;;;;;;;;8.67;8.67;;;;;-147.47;100.00;64613.53;5073160;28;45516;-67
2023/04/24 08:13:23;;;;;;;;;11.67;9.33;;;;;-147.47;100.00;64613.53;5072764;28;45401;-67
2023/04/24 08:15:48;;;;;;;;;10.67;8.67;;;;;-147.47;100.00;64613.53;5071630;28;45357;-69
2023/04/24 08:18:15;;;;;;;;;11.33;10.00;;;;;-147.47;100.00;64613.53;5072910;28;45496;-67
2023/04/24 08:20:41;;;;;;;;;4.33;4.33;;;;;-147.47;100.00;64613.53;5054571;28;45716;-67
2023/04/24 08:23:06;;;;;;;;;8.67;7.33;;;;;-147.47;100.00;64613.53;5072369;28;45824;-70
2023/04/24 08:25:32;;;;;;;;;13.33;10.33;;;;;-147.47;100.00;64613.53;5049294;28;45476;-67
2023/04/24 08:27:58;;;;;;;;;10.67;9.00;;;;;-147.47;100.00;64613.53;5087912;22;46277;-83
2023/04/24 08:30:23;;;;;;;;;12.00;8.33;;;;;-147.47;100.00;64613.53;5079566;27;45478;-82
2023/04/24 08:32:49;;;;;;;;;15.33;13.67;;;;;-147.47;100.00;64613.53;5073998;27;45552;-83
2023/04/24 08:35:14;;;;;;;;;9.67;9.67;;;;;-147.47;100.00;64613.53;5084521;27;45808;-83
2023/04/24 08:37:40;;;;;;;;;13.33;13.33;;;;;-147.47;100.00;64613.53;5083857;27;47068;-81
2023/04/24 08:40:14;;;;;;;;;10.33;9.00;;;;;-147.47;100.00;64613.53;5089341;27;45418;-81
2023/04/24 08:42:43;;;;;;;;;12.67;11.00;;;;;-147.47;100.00;64613.53;5065201;28;45399;-82
2023/04/24 08:45:11;;;;;;;;;14.67;13.67;;;;;-147.47;100.00;64613.53;5079868;27;45344;-83
2023/04/24 08:47:38;;;;;;;;;14.00;13.00;;;;;-147.47;100.00;64613.53;5076477;27;45374;-83
2023/04/24 08:50:05;;;;;;;;;16.00;16.00;;;;;-147.47;100.00;64613.53;5080964;27;45517;-80
2023/04/24 08:52:33;;;;;;;;;16.67;14.33;;;;;-147.47;100.00;64613.53;5083541;27;45424;-82
2023/04/24 08:55:01;;;;;;;;;16.67;14.67;;;;;-147.47;100.00;64613.53;5068119;27;45785;-82
2023/04/24 08:57:27;;;;;;;;;21.33;15.00;;;;;-147.47;100.00;64613.53;5065366;28;48127;-81
2023/04/24 08:59:53;;;;;;;;;17.00;14.67;;;;;-147.47;100.00;64613.53;5082827;28;45427;-84
2023/04/24 09:02:18;;;;;;;;;14.00;14.00;;;;;-147.47;100.00;64613.53;5082623;28;45422;-83
2023/04/24 09:04:46;;;;;;;;;15.00;9.33;;;;;-147.47;100.00;64613.53;5051641;28;46292;-81
2023/04/24 09:07:14;;;;;;;;;12.67;10.67;;;;;-147.47;100.00;64613.53;5069949;28;45558;-80
2023/04/24 09:09:41;;;;;;;;;15.33;14.33;;;;;-147.47;100.00;64613.53;5075034;28;45328;-86
2023/04/24 09:12:09;;;;;;;;;10.00;10.00;;;;;-147.47;100.00;64613.53;5075597;28;45845;-83
2023/04/24 09:14:36;;;;;;;;;15.33;14.00;;;;;-147.47;100.00;64613.53;5072482;27;46350;-81
2023/04/24 09:17:02;;;;;;;;;19.33;13.67;;;;;-147.47;100.00;64613.53;5081026;27;46398;-80
2023/04/24 09:19:27;;;;;;;;;13.67;13.67;;;;;-147.47;100.00;64613.53;5098587;27;45417;-82
2023/04/24 09:21:53;;;;;;;;;14.67;12.00;;;;;-147.47;100.00;64613.53;5093703;27;45372;-82
2023/04/24 09:24:22;;;;;;;;;17.67;15.00;;;;;-147.47;100.00;64613.53;5064057;28;45711;-80
2023/04/24 09:26:49;;;;;;;;;14.67;13.33;;;;;-147.47;100.00;64613.53;5094957;27;45484;-82
2023/04/24 09:29:18;;;;;;;;;16.00;13.00;;;;;-147.47;100.00;64613.53;5083201;27;45589;-82
2023/04/24 09:31:45;;;;;;;;;18.33;16.00;;;;;-147.47;100.00;64613.53;5063518;28;45451;-83
2023/04/24 09:34:11;;;;;;;;;18.00;16.00;;;;;-147.47;100.00;64613.53;5074540;27;45683;-83
2023/04/24 09:36:42;;;;;;;;;16.33;13.33;;;;;-147.47;100.00;64613.53;5070420;28;47007;-81
2023/04/24 09:39:15;;;;;;;;;11.33;11.33;;;;;-147.47;100.00;64613.53;5097230;27;45477;-84
2023/04/24 09:41:48;;;;;;;;;12.33;10.33;;;;;-147.47;100.00;64613.53;5073899;28;45454;-81
2023/04/24 09:44:21;;;;;;;;;17.00;16.00;;;;;-147.47;100.00;64613.53;5083925;28;45449;-81
2023/04/24 09:46:54;;;;;;;;;17.00;14.33;;;;;-147.47;100.00;64613.53;5083344;27;45714;-82
2023/04/24 09:49:25;;;;;;;;;19.33;15.33;;;;;-147.47;100.00;64613.53;5056164;28;45724;-83
2023/04/24 09:51:51;;;;;;;;;14.00;12.00;;;;;-147.47;100.00;64613.53;5085736;28;45474;-83
2023/04/24 09:54:20;;;;;;;;;14.33;11.67;;;;;-147.47;100.00;64613.53;5083438;28;45626;-80
2023/04/24 09:56:48;;;;;;;;;15.00;13.33;;;;;-147.47;100.00;64613.53;5066033;28;45711;-80
2023/04/24 09:59:14;;;;;;;;;14.33;11.33;;;;;-147.47;100.00;64613.53;5087725;27;45480;-81
2023/04/24 10:01:44;;;;;;;;;17.67;16.00;;;;;-147.47;100.00;64613.53;5069137;27;45541;-81
2023/04/24 10:04:16;;;;;;;;;15.00;12.00;;;;;-147.47;100.00;64613.53;5098979;27;45330;-82
2023/04/24 10:06:43;;;;;;;;;16.33;15.67;;;;;-147.47;100.00;64613.53;5085809;27;46198;-82
2023/04/24 10:09:10;;;;;;;;;12.67;12.00;;;;;-147.47;100.00;64613.53;5078892;27;45312;-84
2023/04/24 10:11:37;;;;;;;;;17.33;14.67;;;;;-147.47;100.00;64613.53;5061374;27;45417;-81
2023/04/24 10:14:03;;;;;;;;;15.00;10.33;;;;;-147.47;100.00;64613.53;5081170;28;45719;-81
2023/04/24 10:16:31;;;;;;;;;14.67;9.67;;;;;-147.47;100.00;64613.53;5075430;28;45436;-82
2023/04/24 10:18:59;;;;;;;;;12.00;11.67;;;;;-147.47;100.00;64613.53;5095493;27;45892;-83
2023/04/24 10:21:26;;;;;;;;;7.67;6.33;;;;;-147.47;100.00;64613.53;5056434;28;45501;-81
2023/04/24 10:23:53;;;;;;;;;12.67;10.67;;;;;-147.47;100.00;64613.53;5084459;28;45339;-83
2023/04/24 10:26:19;;;;;;;;;16.00;12.67;;;;;-147.47;100.00;64613.53;5084695;27;45895;-82
2023/04/24 10:28:48;;;;;;;;;14.33;10.33;;;;;-147.47;100.00;64613.53;5069554;28;45481;-81
2023/04/24 10:31:14;;;;;;;;;12.67;10.67;;;;;-147.47;100.00;64613.53;5079681;28;45760;-81
2023/04/24 10:33:42;;;;;;;;;12.67;11.00;;;;;-147.47;100.00;64613.53;5083301;28;45278;-82
2023/04/24 10:36:14;;;;;;;;;14.67;10.67;;;;;-147.47;100.00;64613.53;5078496;27;46961;-83
2023/04/24 10:38:43;;;;;;;;;12.67;11.67;;;;;-147.47;100.00;64613.53;5074164;28;44746;-82
2023/04/24 10:41:16;;;;;;;;;15.00;14.00;;;;;-147.47;100.00;64613.53;5089439;27;45423;-83
2023/04/24 10:43:42;;;;;;;;;10.33;10.00;;;;;-147.47;100.00;64613.53;5059998;28;45943;-85
2023/04/24 10:46:10;;;;;;;;;12.00;10.67;;;;;-147.47;100.00;64613.53;5083904;27;45503;-83
2023/04/24 10:48:35;;;;;;;;;13.33;13.00;;;;;-147.47;100.00;64613.53;5060456;27;45507;-82
2023/04/24 10:51:01;;;;;;;;;14.33;11.33;;;;;-147.47;100.00;64613.53;5078761;28;45518;-81
2023/04/24 10:53:29;;;;;;;;;10.67;9.00;;;;;-147.47;100.00;64613.53;5085633;27;45418;-81
2023/04/24 10:56:10;;;;;;;;;11.67;10.67;;;;;-147.47;100.00;64613.53;5090689;27;45449;-82
2023/04/24 10:58:39;;;;;;;;;13.33;12.00;;;;;-147.47;100.00;64613.53;5088485;27;45529;-84
2023/04/24 11:01:06;;;;;;;;;10.00;7.33;;;;;-147.47;100.00;64613.53;5077909;27;45361;-81